New Harbor, ME (Heathkit)

43° 52' 34"N, 69° 29' 40"W, Elevation 65 ft.
Eastern Time

Hourly observations for the last 72 hours

Date Time Temperature (°F) Humi-
dity

(%)
Wind
(mph)
Pressure Rain (in)
Air Dew 6 Hour 1 Hr 3 Hr 6 Hr Day
Alt
(in)
Sea
Level

(mb)
Max Min
30 01:00 62 -40 0 SE 1 G 10 29.63 1003.4 0.00
30 00:00 62 -40 0 SSE 6 G 16 29.67 1004.8 0.01
29 23:00 62 -40 0 S 8 G 17 29.68 1005.1 0.01
29 22:00 61 -41 0 SE 2 G 9 29.71 1006.1 0.01
29 21:00 61 -41 0 SSE 2 G 6 29.70 1005.8 0.01
29 20:00 62 -40 65 57 0 SSE 2 G 7 29.70 1005.8 0.01
29 19:00 62 -40 0 ESE 1 G 2 29.71 1006.1 0.01
29 18:00 62 -40 0 ESE 1 G 2 29.72 1006.5 0.01
29 17:00 63 -39 0 SSE 1 G 3 29.71 1006.1 0.01
29 16:00 63 -39 0 ESE 1 G 4 29.71 1006.1 0.01
29 15:00 65 -38 0 ESE 1 G 2 29.72 1006.5 0.01
29 14:00 64 -39 66 56 0 S 1 G 2 29.74 1007.1 0.01
29 13:00 63 -39 0 SSE 1 G 2 29.77 1008.2 0.01
29 12:00 63 -39 0 SSE 1 G 2 29.78 1008.5 0.01
29 11:00 63 -39 0 SW 2 G 7 29.79 1008.8 0.01
29 10:00 63 -39 0 SSE 3 G 7 29.81 1009.5 0.01
29 09:00 63 -39 0 SW 2 G 6 29.80 1009.2 0.01
29 08:00 62 -40 63 56 0 S 6 G 10 29.79 1008.8 0.01 0.01
29 07:00 61 -41 0 S 1 G 7 29.81 1009.5 0.01
29 06:00 61 -41 0 SSW 1 G 10 29.79 1008.8 0.01
29 05:00 62 -40 0 SSW 2 G 7 29.80 1009.2 0.01 0.01 0.01
29 04:00 62 -40 0 S 2 G 9 29.79 1008.8 0.00
29 03:00 62 -40 0 S 3 G 8 29.78 1008.5 0.00
29 02:00 63 -39 64 56 0 S 5 G 12 29.79 1008.8 0.00
29 01:00 63 -39 0 S 8 G 16 29.78 1008.5 0.00
29 00:00 62 -40 0 S 4 G 9 29.79 1008.8 0.03
28 23:00 63 -39 0 S 5 G 24 29.79 1008.8 0.03
28 22:00 62 -40 0 S 6 G 24 29.79 1008.8 0.03
28 21:00 62 -40 0 S 6 G 17 29.78 1008.5 0.03
28 20:00 62 -40 70 55 0 S 8 G 15 29.78 1008.5 0.03 0.03 0.03
28 19:00 62 -40 0 S 6 G 15 29.79 1008.8 0.03
28 18:00 63 -39 0 S 6 G 12 29.80 1009.2 0.03 0.03
28 17:00 64 -39 0 S 6 G 15 29.80 1009.2 0.00
28 16:00 69 -36 0 S 6 G 20 29.79 1008.8 0.00
28 15:00 67 -37 0 S 8 G 20 29.80 1009.2 0.00
28 14:00 66 -38 66 57 0 S 6 G 15 29.81 1009.5 0.00
28 13:00 65 -38 0 S 8 G 14 29.83 1010.2 0.00
28 12:00 65 -38 0 S 6 G 16 29.84 1010.5 0.00
28 11:00 63 -39 0 S 6 G 13 29.84 1010.5 0.00
28 10:00 63 -39 0 S 6 G 14 29.84 1010.5 0.00
28 09:00 64 -39 0 S 7 G 18 29.84 1010.5 0.00
28 08:00 64 -39 64 56 0 S 6 G 12 29.83 1010.2 0.00
28 07:00 61 -41 0 S 5 G 12 29.83 1010.2 0.00
28 06:00 62 -40 0 S 5 G 10 29.83 1010.2 0.00
28 05:00 63 -39 0 SSE 2 G 9 29.83 1010.2 0.00
28 04:00 64 -39 0 S 3 G 8 29.83 1010.2 0.00
28 03:00 64 -39 0 S 5 G 13 29.84 1010.5 0.00
28 02:00 64 -39 64 56 0 S 4 G 12 29.85 1010.9 0.00
28 01:00 63 -39 0 S 1 G 7 29.85 1010.9 0.00
28 00:00 63 -39 0 WSW 2 G 7 29.85 1010.9 0.00
27 23:00 63 -39 0 S 4 G 9 29.86 1011.2 0.00
27 22:00 63 -39 0 S 5 G 10 29.85 1010.9 0.00
27 21:00 64 -39 0 S 4 G 9 29.85 1010.9 0.00
27 20:00 61 -41 66 58 0 S 4 G 11 29.84 1010.5 0.00
27 19:00 63 -39 0 S 3 G 6 29.83 1010.2 0.00
27 18:00 63 -39 0 S 2 G 6 29.83 1010.2 0.00
27 17:00 63 -39 0 S 3 G 11 29.83 1010.2 0.00
27 16:00 64 -39 0 S 3 G 7 29.83 1010.2 0.00
27 15:00 65 -38 0 S 5 G 14 29.85 1010.9 0.00
27 14:00 66 -38 67 54 0 S 6 G 12 29.86 1011.2 0.00
27 13:00 66 -38 0 S 3 G 12 29.87 1011.5 0.00
27 12:00 65 -38 0 S 2 G 9 29.88 1011.9 0.00
27 11:00 63 -39 0 SSW 2 G 13 29.89 1012.2 0.00
27 10:00 62 -40 0 S 4 G 13 29.91 1012.9 0.00
27 09:00 60 -41 0 S 3 G 9 29.90 1012.6 0.00
27 08:00 60 -41 61 54 0 SSW 3 G 7 29.88 1011.9 0.00
27 07:00 60 -41 0 SSW 2 G 9 29.88 1011.9 0.00
27 06:00 60 -41 0 SW 2 G 7 29.89 1012.2 0.00
27 05:00 61 -41 0 SW 2 G 9 29.89 1012.2 0.00
27 04:00 59 -42 0 SE 1 G 2 29.89 1012.2 0.00
27 03:00 58 -42 0 SW 1 G 2 29.89 1012.2 0.00
27 02:00 59 -42 60 53 0 WSW 1 G 3 29.90 1012.6 0.00

Data generated by WxSolution Version 1.9.1.8, Build 2020.02.16.